Time;durP1;ratioP1;P1;durP2;ratioP2;P2;SDS_P1;SDS_P2;PMS_P1;PMS_P2;Temp;Humidity;BMP_temperature;BMP_pressure;BME280_temperature;BME280_humidity;BME280_pressure;Samples;Min_cycle;Max_cycle;Signal;HPM_P1;HPM_P2
2023/08/17 00:01:54;;;;;;;10.70;8.77;;;;;;;19.61;100.00;98258.22;5052481;28;20319;-79
2023/08/17 00:04:20;;;;;;;10.07;8.90;;;;;;;19.60;100.00;98250.31;5052280;28;20232;-79
2023/08/17 00:06:47;;;;;;;11.83;9.40;;;;;;;19.60;100.00;98251.19;5052144;28;20214;-79
2023/08/17 00:09:13;;;;;;;11.13;9.17;;;;;;;19.57;100.00;98250.66;5051881;28;20632;-80
2023/08/17 00:11:40;;;;;;;12.37;9.63;;;;;;;19.57;100.00;98246.13;5052128;28;20207;-79
2023/08/17 00:14:08;;;;;;;13.27;9.80;;;;;;;19.60;100.00;98253.00;5051817;28;20605;-80
2023/08/17 00:16:34;;;;;;;14.43;10.30;;;;;;;19.58;100.00;98242.44;5052075;28;20207;-80
2023/08/17 00:19:01;;;;;;;12.13;9.73;;;;;;;19.56;100.00;98252.47;5052021;28;20219;-80
2023/08/17 00:21:29;;;;;;;12.33;9.40;;;;;;;19.56;100.00;98251.66;5051557;28;20228;-80
2023/08/17 00:23:56;;;;;;;13.20;9.73;;;;;;;19.54;100.00;98246.44;5051610;28;20228;-80
2023/08/17 00:26:22;;;;;;;11.57;9.50;;;;;;;19.49;100.00;98240.72;5051733;28;20246;-80
2023/08/17 00:28:49;;;;;;;10.93;9.33;;;;;;;19.46;100.00;98251.78;5051823;28;20223;-80
2023/08/17 00:31:17;;;;;;;14.30;10.40;;;;;;;19.48;100.00;98241.72;5051747;28;20201;-79
2023/08/17 00:33:43;;;;;;;11.53;9.37;;;;;;;19.51;100.00;98236.03;5051631;28;20250;-80
2023/08/17 00:36:10;;;;;;;14.30;10.67;;;;;;;19.56;100.00;98233.72;5051594;28;20210;-80
2023/08/17 00:38:36;;;;;;;13.90;10.23;;;;;;;19.59;100.00;98238.78;5051608;28;20594;-80
2023/08/17 00:41:02;;;;;;;15.37;10.73;;;;;;;19.64;100.00;98228.38;5050802;28;20698;-80
2023/08/17 00:43:29;;;;;;;13.43;9.83;;;;;;;19.60;100.00;98213.63;5051271;28;20263;-80
2023/08/17 00:45:56;;;;;;;12.70;9.57;;;;;;;19.56;100.00;98214.94;5051682;28;20218;-80
2023/08/17 00:48:24;;;;;;;12.07;8.90;;;;;;;19.56;100.00;98216.81;5051395;28;20219;-80
2023/08/17 00:50:53;;;;;;;17.77;9.90;;;;;;;19.55;100.00;98215.09;5050967;28;20212;-80
2023/08/17 00:53:21;;;;;;;13.33;10.20;;;;;;;19.57;100.00;98218.47;5051195;28;20214;-80
2023/08/17 00:55:48;;;;;;;12.60;10.23;;;;;;;19.62;100.00;98226.91;5050986;28;20215;-79
2023/08/17 00:58:15;;;;;;;15.97;11.37;;;;;;;19.69;100.00;98226.06;5051200;28;20331;-79
2023/08/17 01:00:41;;;;;;;14.57;10.40;;;;;;;19.75;100.00;98227.28;5049017;28;20219;-79
2023/08/17 01:03:08;;;;;;;12.90;10.03;;;;;;;19.75;100.00;98217.38;5048193;28;20228;-79
2023/08/17 01:05:37;;;;;;;13.43;10.30;;;;;;;19.79;100.00;98223.25;5048202;28;20236;-79
2023/08/17 01:08:04;;;;;;;11.90;8.83;;;;;;;19.79;100.00;98217.91;5048853;28;20298;-80
2023/08/17 01:10:35;;;;;;;13.30;9.33;;;;;;;19.78;100.00;98209.03;5050511;28;20207;-80
2023/08/17 01:13:06;;;;;;;13.17;9.87;;;;;;;19.82;100.00;98215.72;5051044;28;20558;-80
2023/08/17 01:15:37;;;;;;;13.77;10.13;;;;;;;19.82;100.00;98221.09;5050971;28;20208;-80
2023/08/17 01:18:11;;;;;;;11.37;8.83;;;;;;;19.85;100.00;98226.16;5051042;28;20211;-80
2023/08/17 01:20:40;;;;;;;12.13;9.40;;;;;;;19.85;100.00;98223.47;5050779;28;20207;-80
2023/08/17 01:23:08;;;;;;;12.90;9.27;;;;;;;19.90;100.00;98226.53;5050970;28;20236;-79
2023/08/17 01:25:36;;;;;;;12.07;8.83;;;;;;;19.94;100.00;98216.31;5051136;28;20208;-79
2023/08/17 01:28:04;;;;;;;11.83;9.47;;;;;;;19.99;100.00;98213.97;5050824;28;20222;-79
2023/08/17 01:30:34;;;;;;;11.10;8.47;;;;;;;20.00;100.00;98207.59;5050658;28;20205;-79
2023/08/17 01:33:07;;;;;;;10.50;8.63;;;;;;;20.02;100.00;98213.63;5050830;28;20229;-79
2023/08/17 01:35:39;;;;;;;9.87;8.10;;;;;;;20.03;100.00;98216.16;5050929;28;20309;-80
2023/08/17 01:38:12;;;;;;;12.77;9.00;;;;;;;20.09;100.00;98215.56;5051241;28;20221;-80
2023/08/17 01:40:40;;;;;;;13.77;9.47;;;;;;;20.09;100.00;98215.56;5050510;28;20752;-79
2023/08/17 01:43:07;;;;;;;11.83;8.40;;;;;;;20.07;100.00;98214.88;5050813;28;20232;-79
2023/08/17 01:45:33;;;;;;;11.70;9.03;;;;;;;20.05;100.00;98208.78;5050842;28;20204;-79
2023/08/17 01:48:00;;;;;;;11.27;9.13;;;;;;;20.02;100.00;98219.84;5050717;28;20239;-80
2023/08/17 01:50:26;;;;;;;11.57;8.67;;;;;;;20.03;100.00;98216.16;5050361;28;20698;-79
2023/08/17 01:52:53;;;;;;;11.10;9.00;;;;;;;20.05;100.00;98208.78;5050848;28;20232;-79
2023/08/17 01:55:22;;;;;;;13.67;9.57;;;;;;;20.02;100.00;98210.97;5050584;28;20228;-80
2023/08/17 01:57:49;;;;;;;11.47;9.30;;;;;;;19.93;100.00;98215.44;5050737;28;20818;-79
2023/08/17 02:00:16;;;;;;;12.63;8.53;;;;;;;19.93;100.00;98223.50;5050275;28;20237;-79
2023/08/17 02:02:43;;;;;;;11.23;9.13;;;;;;;19.92;100.00;98219.13;5050666;28;20250;-79
2023/08/17 02:05:09;;;;;;;9.37;7.77;;;;;;;19.99;100.00;98208.63;5050572;28;20232;-79
2023/08/17 02:07:36;;;;;;;12.07;9.30;;;;;;;19.97;100.00;98210.59;5050750;28;20208;-79
2023/08/17 02:10:02;;;;;;;10.07;7.90;;;;;;;19.95;100.00;98207.25;5050293;28;20223;-79
2023/08/17 02:12:31;;;;;;;9.43;7.60;;;;;;;19.96;100.00;98199.03;5050642;28;20211;-79
2023/08/17 02:14:57;;;;;;;8.00;7.20;;;;;;;19.96;100.00;98215.13;5050439;28;20319;-79
2023/08/17 02:17:24;;;;;;;9.47;8.20;;;;;;;19.96;100.00;98215.13;5050522;28;20666;-79
2023/08/17 02:19:50;;;;;;;8.57;7.20;;;;;;;19.99;100.00;98201.38;5050024;28;20689;-79
2023/08/17 02:22:17;;;;;;;11.93;8.63;;;;;;;20.03;100.00;98205.44;5052298;28;20224;-79
2023/08/17 02:24:43;;;;;;;11.53;6.93;;;;;;;20.03;100.00;98208.13;5053790;28;20235;-79
2023/08/17 02:27:10;;;;;;;10.97;8.07;;;;;;;20.03;100.00;98210.81;5054010;28;20207;-79
2023/08/17 02:29:38;;;;;;;8.93;7.27;;;;;;;20.01;100.00;98207.44;5053673;28;20214;-79
2023/08/17 02:32:05;;;;;;;10.03;6.80;;;;;;;20.03;100.00;98210.81;5054072;28;20200;-78
2023/08/17 02:34:32;;;;;;;7.40;6.33;;;;;;;20.06;100.00;98205.13;5068827;22;20252;-83
2023/08/17 02:36:58;;;;;;;8.70;6.40;;;;;;;20.09;100.00;98198.59;5054083;28;20232;-83
2023/08/17 02:39:27;;;;;;;8.57;6.97;;;;;;;20.11;100.00;98197.44;5053625;28;20208;-83
2023/08/17 02:41:53;;;;;;;11.07;8.00;;;;;;;20.10;100.00;98187.72;5053693;28;20239;-84
2023/08/17 02:44:20;;;;;;;8.93;6.80;;;;;;;20.11;100.00;98189.38;5053608;28;20243;-83
2023/08/17 02:46:47;;;;;;;11.07;7.43;;;;;;;20.15;100.00;98190.75;5053769;28;20690;-83
2023/08/17 02:49:14;;;;;;;8.10;6.43;;;;;;;20.15;100.00;98197.94;5053403;28;20238;-83
2023/08/17 02:51:40;;;;;;;8.07;6.10;;;;;;;20.16;100.00;98197.78;5053842;28;20231;-84
2023/08/17 02:54:07;;;;;;;8.30;6.20;;;;;;;20.23;100.00;98189.94;5053497;28;20230;-84
2023/08/17 02:56:33;;;;;;;9.80;7.57;;;;;;;20.28;100.00;98192.94;5053696;28;20757;-84
2023/08/17 02:59:00;;;;;;;9.50;6.83;;;;;;;20.26;100.00;98194.97;5053871;28;20211;-84
2023/08/17 03:01:26;;;;;;;8.73;6.90;;;;;;;20.22;100.00;98189.06;5053373;28;20230;-83
2023/08/17 03:03:54;;;;;;;8.83;6.40;;;;;;;20.25;100.00;98183.38;5053335;28;20228;-83
2023/08/17 03:06:20;;;;;;;9.40;7.63;;;;;;;20.23;100.00;98180.00;5053355;28;20212;-83
2023/08/17 03:08:47;;;;;;;9.63;6.73;;;;;;;20.28;100.00;98172.31;5053133;28;20222;-83
2023/08/17 03:11:13;;;;;;;9.37;7.30;;;;;;;20.31;100.00;98169.28;5052838;28;20230;-84
2023/08/17 03:13:40;;;;;;;9.23;6.70;;;;;;;20.30;100.00;98172.97;5053428;28;20223;-84
2023/08/17 03:16:06;;;;;;;11.07;7.23;;;;;;;20.27;100.00;98175.16;5053139;28;20227;-84
2023/08/17 03:18:33;;;;;;;8.43;6.27;;;;;;;20.28;100.00;98180.38;5053167;28;20247;-84
2023/08/17 03:21:01;;;;;;;8.03;6.70;;;;;;;20.31;100.00;98165.78;5052811;28;20216;-84
2023/08/17 03:23:27;;;;;;;9.00;6.47;;;;;;;20.30;100.00;98170.28;5052783;28;20228;-83
2023/08/17 03:25:54;;;;;;;10.97;7.17;;;;;;;20.30;100.00;98161.41;5053068;28;20216;-84
2023/08/17 03:28:20;;;;;;;8.77;6.87;;;;;;;20.29;100.00;98159.75;5053092;28;20204;-84
2023/08/17 03:30:47;;;;;;;10.63;7.23;;;;;;;20.37;100.00;98160.56;5052700;28;20485;-84
2023/08/17 03:33:13;;;;;;;9.30;6.73;;;;;;;20.36;100.00;98169.63;5052642;28;20667;-84
2023/08/17 03:35:40;;;;;;;9.40;7.30;;;;;;;20.35;100.00;98172.50;5052567;28;20235;-81
2023/08/17 03:38:07;;;;;;;7.87;6.20;;;;;;;20.33;100.00;98175.34;5052582;28;20204;-81
2023/08/17 03:40:34;;;;;;;9.07;6.57;;;;;;;20.36;100.00;98163.44;5052541;28;20212;-81
2023/08/17 03:43:00;;;;;;;11.93;7.53;;;;;;;20.35;100.00;98167.97;5052585;28;20679;-81
2023/08/17 03:45:27;;;;;;;11.00;7.80;;;;;;;20.35;100.00;98167.13;5052611;28;20691;-81
2023/08/17 03:47:53;;;;;;;12.57;7.83;;;;;;;20.35;100.00;98176.00;5052868;28;20204;-81
2023/08/17 03:50:20;;;;;;;10.10;7.60;;;;;;;20.40;100.00;98165.63;5052599;28;20215;-81
2023/08/17 03:52:46;;;;;;;9.87;7.67;;;;;;;20.41;100.00;98179.91;5052552;28;20219;-81
2023/08/17 03:55:14;;;;;;;8.80;6.57;;;;;;;20.45;100.00;98174.03;5053089;28;20224;-81
2023/08/17 03:57:40;;;;;;;8.77;6.80;;;;;;;20.44;100.00;98180.41;5052309;28;20207;-81
2023/08/17 04:00:09;;;;;;;10.93;7.57;;;;;;;20.45;100.00;98176.72;5052232;28;20212;-81
2023/08/17 04:02:36;;;;;;;11.43;8.50;;;;;;;20.44;100.00;98183.09;5052305;28;20232;-81
2023/08/17 04:05:03;;;;;;;10.67;7.73;;;;;;;20.44;100.00;98177.72;5052124;28;20243;-81
2023/08/17 04:07:29;;;;;;;16.03;10.27;;;;;;;20.51;100.00;98192.16;5052253;28;20231;-81
2023/08/17 04:09:56;;;;;;;13.93;9.80;;;;;;;20.47;100.00;98190.78;5052100;28;20668;-81
2023/08/17 04:12:24;;;;;;;14.17;9.47;;;;;;;20.44;100.00;98193.81;5052149;28;20201;-77
2023/08/17 04:14:51;;;;;;;11.47;8.30;;;;;;;20.45;100.00;98195.50;5052450;28;20228;-81
2023/08/17 04:17:17;;;;;;;16.93;11.83;;;;;;;20.52;100.00;98192.97;5052357;28;20212;-81
2023/08/17 04:19:44;;;;;;;15.63;9.70;;;;;;;20.49;100.00;98204.06;5051453;28;20219;-81
2023/08/17 04:22:10;;;;;;;14.73;9.53;;;;;;;20.48;100.00;98195.16;5051768;28;20204;-80
2023/08/17 04:24:37;;;;;;;14.83;9.57;;;;;;;20.45;100.00;98202.69;5052056;28;20281;-80
2023/08/17 04:27:04;;;;;;;15.70;9.60;;;;;;;20.44;100.00;98204.56;5052208;28;20215;-81
2023/08/17 04:29:32;;;;;;;16.00;10.20;;;;;;;20.45;100.00;98206.25;5051775;28;20208;-81
2023/08/17 04:31:59;;;;;;;19.27;11.63;;;;;;;20.54;100.00;98210.59;5051862;28;20230;-81
2023/08/17 04:34:25;;;;;;;16.70;10.90;;;;;;;20.54;100.00;98213.28;5051292;28;20239;-81
2023/08/17 04:36:52;;;;;;;18.60;12.03;;;;;;;20.54;100.00;98215.97;5051833;28;20208;-81
2023/08/17 04:39:18;;;;;;;15.77;10.77;;;;;;;20.45;100.00;98211.59;5051479;28;20702;-81
2023/08/17 04:41:45;;;;;;;15.50;10.07;;;;;;;20.41;100.00;98215.63;5051663;28;20212;-80
2023/08/17 04:44:11;;;;;;;16.63;9.80;;;;;;;20.43;100.00;98216.28;5051155;28;20617;-81
2023/08/17 04:46:39;;;;;;;20.03;11.90;;;;;;;20.40;100.00;98213.09;5051441;28;20247;-81
2023/08/17 04:49:06;;;;;;;17.87;11.40;;;;;;;20.48;100.00;98216.63;5051434;28;20218;-81
2023/08/17 04:51:32;;;;;;;21.70;12.27;;;;;;;20.53;100.00;98221.50;5051886;28;20208;-81
2023/08/17 04:53:59;;;;;;;17.87;11.33;;;;;;;20.52;100.00;98223.38;5051522;28;20250;-81
2023/08/17 04:56:25;;;;;;;20.27;11.37;;;;;;;20.53;100.00;98219.66;5051570;28;20215;-81
2023/08/17 04:58:52;;;;;;;18.43;11.17;;;;;;;20.54;100.00;98221.34;5051435;28;20740;-81
2023/08/17 05:01:19;;;;;;;16.70;11.13;;;;;;;20.55;100.00;98223.03;5051188;28;20707;-81
2023/08/17 05:03:46;;;;;;;16.83;10.10;;;;;;;20.53;100.00;98230.41;5051213;28;20297;-81
2023/08/17 05:06:13;;;;;;;15.67;9.37;;;;;;;20.58;100.00;98229.91;5051482;28;20212;-81
2023/08/17 05:08:40;;;;;;;22.43;12.00;;;;;;;20.61;100.00;98233.09;5051207;28;20204;-81
2023/08/17 05:11:06;;;;;;;20.00;10.83;;;;;;;20.60;100.00;98225.22;5051234;28;20587;-81
2023/08/17 05:13:33;;;;;;;17.47;10.60;;;;;;;20.65;100.00;98225.53;5051278;28;20205;-81
2023/08/17 05:15:59;;;;;;;16.63;10.83;;;;;;;20.65;100.00;98230.91;5051517;28;20207;-81
2023/08/17 05:18:26;;;;;;;18.13;11.13;;;;;;;20.67;100.00;98236.97;5051308;28;20214;-81
2023/08/17 05:20:54;;;;;;;18.67;11.70;;;;;;;20.68;100.00;98236.81;5050761;28;20215;-81
2023/08/17 05:23:21;;;;;;;16.30;9.37;;;;;;;20.69;100.00;98235.81;5051335;28;20236;-80
2023/08/17 05:25:48;;;;;;;13.43;8.93;;;;;;;20.74;100.00;98236.16;5051311;28;20234;-81
2023/08/17 05:28:14;;;;;;;14.20;9.57;;;;;;;20.75;100.00;98242.34;5050929;28;20208;-81
2023/08/17 05:30:41;;;;;;;9.53;7.40;;;;;;;20.81;100.00;98233.63;5050557;28;20592;-80
2023/08/17 05:33:07;;;;;;;10.33;7.27;;;;;;;20.84;100.00;98233.31;5051055;28;20208;-80
2023/08/17 05:35:34;;;;;;;11.73;7.93;;;;;;;20.90;100.00;98228.13;5050633;28;20240;-80
2023/08/17 05:38:02;;;;;;;10.10;7.93;;;;;;;20.94;100.00;98237.53;5050928;28;20203;-80
2023/08/17 05:40:31;;;;;;;14.57;9.90;;;;;;;21.00;100.00;98239.56;5050589;28;20251;-81
2023/08/17 05:42:57;;;;;;;12.20;8.47;;;;;;;21.05;100.00;98231.84;5050629;28;20285;-80
2023/08/17 05:45:24;;;;;;;11.10;8.70;;;;;;;21.07;100.00;98229.81;5050473;28;20236;-80
2023/08/17 05:47:50;;;;;;;10.53;7.77;;;;;;;21.12;100.00;98227.44;5050926;28;20231;-81
2023/08/17 05:50:16;;;;;;;13.00;9.20;;;;;;;21.16;100.00;98234.16;5050546;28;20212;-80
2023/08/17 05:52:43;;;;;;;15.70;9.90;;;;;;;21.17;100.00;98230.47;5050692;28;20208;-81
2023/08/17 05:55:11;;;;;;;11.53;8.50;;;;;;;21.22;100.00;98228.09;5050479;28;20247;-81
2023/08/17 05:57:37;;;;;;;11.73;9.10;;;;;;;21.28;100.00;98223.91;5053110;28;20212;-81
2023/08/17 06:00:05;;;;;;;11.17;7.73;;;;;;;21.30;100.00;98238.88;5054673;28;20213;-81
2023/08/17 06:02:31;;;;;;;10.37;7.23;;;;;;;21.36;100.00;98240.88;5054456;28;20239;-81
2023/08/17 06:04:58;;;;;;;14.23;9.30;;;;;;;21.44;100.00;98243.53;5054359;28;20228;-81
2023/08/17 06:07:24;;;;;;;11.50;8.57;;;;;;;21.49;100.00;98251.09;5054270;28;20208;-81
2023/08/17 06:09:51;;;;;;;12.37;9.07;;;;;;;21.52;100.00;98253.44;5053977;28;20208;-81
2023/08/17 06:12:19;;;;;;;10.80;7.73;;;;;;;21.54;100.00;98259.47;5054082;28;20648;-81
2023/08/17 06:14:45;;;;;;;9.63;7.67;;;;;;;21.56;100.00;98261.00;5054155;28;20232;-81
2023/08/17 06:17:11;;;;;;;10.40;8.10;;;;;;;21.62;100.00;98257.63;5054054;28;20713;-81
2023/08/17 06:19:39;;;;;;;10.07;7.80;;;;;;;21.69;100.00;98261.34;5054011;28;20211;-81
2023/08/17 06:22:06;;;;;;;10.40;7.73;;;;;;;21.71;100.00;98270.06;5054165;28;20243;-82
2023/08/17 06:24:32;;;;;;;8.73;6.93;;;;;;;21.77;100.00;98266.69;5053849;28;20232;-83
2023/08/17 06:26:59;;;;;;;7.90;6.07;;;;;;;21.82;100.00;98258.13;5053548;28;20666;-79
2023/08/17 06:29:27;;;;;;;7.43;6.10;;;;;;;21.86;100.00;98260.28;5053572;28;20212;-78
2023/08/17 06:31:54;;;;;;;7.83;7.00;;;;;;;21.94;100.00;98256.72;5054115;28;20212;-80
2023/08/17 06:34:21;;;;;;;8.07;6.80;;;;;;;22.00;100.00;98259.53;5053629;28;20236;-78
2023/08/17 06:36:58;;;;;;;9.87;8.30;;;;;;;22.13;100.00;98265.22;5053825;28;20216;-78
2023/08/17 06:39:25;;;;;;;10.00;8.30;;;;;;;22.21;100.00;98259.81;5053332;28;20204;-78
2023/08/17 06:41:51;;;;;;;8.87;7.17;;;;;;;22.30;100.00;98260.63;5053622;28;20209;-78
2023/08/17 06:44:18;;;;;;;7.20;6.50;;;;;;;22.39;100.00;98254.16;5053574;28;20244;-78
2023/08/17 06:46:45;;;;;;;7.30;6.03;;;;;;;22.49;100.00;98260.19;5053484;28;20219;-78
2023/08/17 06:49:12;;;;;;;11.47;8.20;;;;;;;22.58;100.00;98262.66;5053145;28;20215;-78
2023/08/17 06:51:39;;;;;;;9.73;7.93;;;;;;;22.63;100.00;98260.28;5053360;28;20208;-78
2023/08/17 06:54:05;;;;;;;9.80;7.53;;;;;;;22.71;100.00;98254.84;5053172;28;20319;-78
2023/08/17 06:56:32;;;;;;;7.17;5.87;;;;;;;22.79;100.00;98267.41;5052018;28;20569;-76
2023/08/17 06:58:58;;;;;;;8.10;6.80;;;;;;;22.84;100.00;98251.53;5052002;28;20211;-77
2023/08/17 07:01:25;;;;;;;9.30;7.60;;;;;;;22.90;100.00;98254.34;5052188;28;20212;-76
2023/08/17 07:03:54;;;;;;;9.00;7.03;;;;;;;22.86;100.00;98261.13;5051995;28;20235;-76
2023/08/17 07:06:20;;;;;;;8.03;6.47;;;;;;;22.86;100.00;98260.28;5052698;28;20204;-78
2023/08/17 07:08:47;;;;;;;8.67;7.17;;;;;;;22.87;100.00;98265.47;5052403;28;20214;-77
2023/08/17 07:11:13;;;;;;;9.93;7.33;;;;;;;22.92;100.00;98271.19;5052892;28;20208;-76
2023/08/17 07:13:40;;;;;;;7.97;7.00;;;;;;;23.02;100.00;98271.78;5052736;28;20208;-77
2023/08/17 07:16:06;;;;;;;9.97;8.27;;;;;;;23.09;100.00;98267.34;5053000;28;20212;-78
2023/08/17 07:18:33;;;;;;;10.17;7.93;;;;;;;23.24;100.00;98265.59;5052952;28;20223;-77
2023/08/17 07:21:00;;;;;;;7.90;6.90;;;;;;;23.36;100.00;98269.50;5052605;28;20227;-78
2023/08/17 07:23:27;;;;;;;8.80;7.67;;;;;;;23.47;100.00;98265.53;5052706;28;20228;-77
2023/08/17 07:25:53;;;;;;;9.00;7.80;;;;;;;23.49;100.00;98267.03;5052958;28;20362;-77
2023/08/17 07:28:20;;;;;;;9.70;7.10;;;;;;;23.61;100.00;98268.25;5052674;28;20204;-77
2023/08/17 07:30:46;;;;;;;8.03;7.17;;;;;;;23.60;100.00;98271.97;5052552;28;20212;-77
2023/08/17 07:33:13;;;;;;;9.23;7.33;;;;;;;23.62;100.00;98272.63;5052584;28;20211;-77
2023/08/17 07:35:39;;;;;;;8.40;7.50;;;;;;;23.65;100.00;98274.13;5052390;28;20235;-77
2023/08/17 07:38:07;;;;;;;13.80;9.50;;;;;;;23.65;100.00;98274.94;5052564;28;20215;-77
2023/08/17 07:40:34;;;;;;;8.83;7.90;;;;;;;23.58;100.00;98279.41;5052216;28;20219;-77
2023/08/17 07:43:01;;;;;;;9.17;7.80;;;;;;;23.56;100.00;98278.75;5052259;28;20701;-77
2023/08/17 07:45:28;;;;;;;8.43;7.53;;;;;;;23.60;100.00;98276.53;5052375;28;20228;-77
2023/08/17 07:47:54;;;;;;;8.60;7.30;;;;;;;23.68;100.00;98266.50;5052353;28;20208;-77
2023/08/17 07:50:21;;;;;;;8.50;6.67;;;;;;;23.79;100.00;98266.03;5051953;28;20204;-77
2023/08/17 07:52:47;;;;;;;9.37;6.93;;;;;;;23.90;100.00;98265.59;5052484;28;20204;-77
2023/08/17 07:55:15;;;;;;;12.50;9.63;;;;;;;24.02;100.00;98261.41;5052406;28;20231;-77
2023/08/17 07:57:42;;;;;;;10.07;8.93;;;;;;;23.93;100.00;98251.75;5052262;28;20595;-79
2023/08/17 08:00:09;;;;;;;10.80;7.90;;;;;;;23.79;100.00;98262.50;5052067;28;20215;-76
2023/08/17 08:02:35;;;;;;;12.13;9.67;;;;;;;23.87;100.00;98257.88;5052027;28;20273;-77
2023/08/17 08:05:02;;;;;;;10.83;9.07;;;;;;;23.86;100.00;98253.47;5051602;28;20236;-78
2023/08/17 08:07:28;;;;;;;9.30;7.60;;;;;;;23.89;100.00;98253.13;5051789;28;20212;-78
2023/08/17 08:09:55;;;;;;;9.30;7.47;;;;;;;24.00;100.00;98258.06;5051692;28;20235;-78
2023/08/17 08:12:23;;;;;;;10.50;8.43;;;;;;;23.96;100.00;98254.06;5051706;28;20216;-79
2023/08/17 08:14:51;;;;;;;10.87;9.20;;;;;;;23.92;100.00;98246.53;5051635;28;20270;-78
2023/08/17 08:17:18;;;;;;;9.37;7.90;;;;;;;23.85;100.00;98246.41;5051719;28;20203;-78
2023/08/17 08:19:45;;;;;;;9.93;7.90;;;;;;;23.77;100.00;98241.09;5050995;28;20262;-78
2023/08/17 08:22:11;;;;;;;10.03;8.57;;;;;;;23.78;100.00;98247.31;5051734;28;20214;-78
2023/08/17 08:24:40;;;;;;;8.63;7.73;;;;;;;23.79;100.00;98255.25;5050905;28;20236;-78
2023/08/17 08:27:07;;;;;;;9.33;7.37;;;;;;;23.86;100.00;98248.09;5051050;28;20690;-78
2023/08/17 08:29:35;;;;;;;10.47;8.50;;;;;;;23.90;100.00;98252.09;5051198;28;20204;-78
2023/08/17 08:32:02;;;;;;;9.70;8.27;;;;;;;23.88;100.00;98250.59;5051574;28;20615;-78
2023/08/17 08:34:29;;;;;;;10.03;8.17;;;;;;;23.89;100.00;98247.72;5065675;22;20311;-75
2023/08/17 08:36:56;;;;;;;9.30;7.77;;;;;;;23.95;100.00;98246.97;5051657;28;20208;-76
2023/08/17 08:39:22;;;;;;;11.07;9.10;;;;;;;23.96;100.00;98245.13;5051394;28;20310;-76
2023/08/17 08:41:48;;;;;;;9.07;7.93;;;;;;;24.02;100.00;98253.31;5051608;28;20207;-76
2023/08/17 08:44:15;;;;;;;9.10;8.10;;;;;;;24.08;100.00;98251.72;5051333;28;20585;-75
2023/08/17 08:46:45;;;;;;;8.80;7.90;;;;;;;24.22;100.00;98257.13;5051472;28;20589;-75
2023/08/17 08:49:12;;;;;;;10.37;8.53;;;;;;;24.37;100.00;98259.78;5050233;28;20215;-75
2023/08/17 08:51:43;;;;;;;10.90;8.77;;;;;;;24.49;100.00;98251.00;5048643;28;20199;-77
2023/08/17 08:54:13;;;;;;;9.37;7.53;;;;;;;24.54;100.00;98245.88;5048593;28;20278;-76
2023/08/17 08:56:43;;;;;;;11.47;7.97;;;;;;;24.66;100.00;98249.78;5049017;28;20208;-77
2023/08/17 08:59:11;;;;;;;9.67;8.13;;;;;;;24.73;100.00;98250.69;5050793;28;20208;-74
2023/08/17 09:01:39;;;;;;;10.50;8.60;;;;;;;24.89;100.00;98250.47;5051483;28;20212;-76
2023/08/17 09:04:07;;;;;;;10.57;8.53;;;;;;;24.96;100.00;98245.94;5048546;28;20341;-76
2023/08/17 09:06:35;;;;;;;11.33;9.40;;;;;;;24.95;100.00;98238.88;5048714;28;20208;-76
2023/08/17 09:09:03;;;;;;;11.13;8.00;;;;;;;24.98;100.00;98237.63;5048492;28;20215;-76
2023/08/17 09:11:30;;;;;;;7.80;7.00;;;;;;;25.05;100.00;98239.34;5049986;28;20736;-76
2023/08/17 09:13:56;;;;;;;8.50;7.60;;;;;;;25.20;100.00;98242.84;5051416;28;20219;-76
2023/08/17 09:16:23;;;;;;;10.20;8.97;;;;;;;25.39;100.00;98235.94;5049826;28;20593;-76
2023/08/17 09:18:49;;;;;;;10.33;8.77;;;;;;;25.34;100.00;98232.97;5048627;28;20227;-79
2023/08/17 09:21:24;;;;;;;10.13;9.03;;;;;;;25.37;98.70;98230.72;5048266;28;20208;-81
2023/08/17 09:23:52;;;;;;;9.80;7.90;;;;;;;25.37;98.18;98222.59;5048864;28;20227;-80
2023/08/17 09:26:21;;;;;;;9.87;8.33;;;;;;;25.40;97.27;98227.63;5051456;28;20819;-78
2023/08/17 09:28:48;;;;;;;9.13;7.93;;;;;;;25.40;97.45;98233.03;5050939;28;20208;-78
2023/08/17 09:31:14;;;;;;;10.73;8.50;;;;;;;25.40;97.73;98232.19;5050596;28;20210;-77
2023/08/17 09:33:41;;;;;;;9.07;8.17;;;;;;;25.36;95.37;98220.94;5052639;28;20490;-78
2023/08/17 09:36:07;;;;;;;10.73;8.97;;;;;;;25.49;96.77;98228.31;5052172;28;20254;-78
2023/08/17 09:38:35;;;;;;;10.60;7.70;;;;;;;25.50;96.32;98230.84;5054162;28;20203;-78
2023/08/17 09:41:02;;;;;;;10.77;9.23;;;;;;;25.66;96.24;98221.59;5054952;28;20214;-79
2023/08/17 09:43:30;;;;;;;10.17;8.53;;;;;;;25.82;92.98;98222.09;5053236;28;20211;-79
2023/08/17 09:45:59;;;;;;;11.80;9.10;;;;;;;25.81;91.72;98215.00;5051697;28;20236;-78
2023/08/17 09:48:26;;;;;;;8.70;7.80;;;;;;;25.83;92.49;98218.34;5052093;28;20809;-78
2023/08/17 09:50:57;;;;;;;8.97;7.60;;;;;;;25.85;93.40;98227.09;5052474;28;20208;-77
2023/08/17 09:53:24;;;;;;;10.40;9.07;;;;;;;26.00;91.43;98224.31;5055068;28;20192;-77
2023/08/17 09:55:54;;;;;;;11.73;9.00;;;;;;;26.00;90.74;98219.72;5054755;28;20260;-77
2023/08/17 09:58:21;;;;;;;10.67;8.93;;;;;;;26.01;90.77;98224.09;5055018;28;20208;-77
2023/08/17 10:00:50;;;;;;;10.13;8.30;;;;;;;25.98;91.16;98215.56;5054283;28;20208;-77
2023/08/17 10:03:18;;;;;;;8.47;7.53;;;;;;;26.00;91.70;98224.31;5054635;28;20273;-78
2023/08/17 10:05:48;;;;;;;9.90;8.27;;;;;;;26.08;91.42;98222.25;5054164;28;20733;-76
2023/08/17 10:08:19;;;;;;;8.93;8.03;;;;;;;26.22;90.97;98212.34;5054342;28;20306;-78
2023/08/17 10:10:47;;;;;;;12.10;10.43;;;;;;;26.44;88.11;98206.56;5054194;28;20208;-77
2023/08/17 10:13:33;;;;;;;8.53;7.63;;;;;;;26.44;88.47;98206.56;5054556;28;20211;-78
2023/08/17 10:16:03;;;;;;;8.57;7.67;;;;;;;26.58;88.83;98208.31;5051709;28;20598;-79
2023/08/17 10:18:33;;;;;;;9.17;7.57;;;;;;;26.66;86.92;98193.72;5053940;28;20208;-81
2023/08/17 10:21:04;;;;;;;9.93;7.97;;;;;;;26.77;86.36;98190.44;5053188;28;20670;-78
2023/08/17 10:23:31;;;;;;;10.67;7.87;;;;;;;26.78;84.45;98184.81;5053360;28;20307;-80
2023/08/17 10:25:58;;;;;;;10.33;8.60;;;;;;;26.83;82.29;98186.88;5053959;28;20236;-78
2023/08/17 10:28:26;;;;;;;10.10;9.07;;;;;;;26.79;84.27;98194.59;5053958;28;20207;-79
2023/08/17 10:30:53;;;;;;;8.23;7.13;;;;;;;26.81;84.98;98191.69;5053848;28;20675;-79
2023/08/17 10:33:20;;;;;;;9.70;7.93;;;;;;;26.87;83.37;98186.25;5053989;28;20208;-78
2023/08/17 10:35:48;;;;;;;12.87;8.87;;;;;;;26.98;82.45;98182.94;5053843;28;20310;-79
2023/08/17 10:38:16;;;;;;;11.67;8.40;;;;;;;27.10;80.73;98179.38;5053895;28;20215;-78
2023/08/17 10:40:43;;;;;;;8.17;7.27;;;;;;;27.09;80.79;98176.91;5053765;28;20310;-78
2023/08/17 10:43:12;;;;;;;8.77;7.80;;;;;;;27.09;79.52;98176.91;5052108;28;20216;-78
2023/08/17 10:45:39;;;;;;;8.13;7.32;;;;;;;27.25;80.52;98181.91;5053173;28;20239;-79
2023/08/17 10:48:31;;;;;;;8.40;7.47;;;;;;;27.27;80.86;98181.72;5052581;28;20617;-78
2023/08/17 10:51:03;;;;;;;7.78;6.97;;;;;;;27.47;81.58;98183.38;5050702;28;20208;-77
2023/08/17 10:53:35;;;;;;;7.53;6.80;;;;;;;27.56;79.97;98177.50;5050638;28;20219;-78
2023/08/17 10:56:02;;;;;;;8.63;7.73;;;;;;;27.63;75.16;98155.78;5051662;28;20277;-80
2023/08/17 10:58:32;;;;;;;9.63;8.57;;;;;;;27.54;75.23;98157.88;5053474;28;20307;-82
2023/08/17 11:01:00;;;;;;;8.65;7.53;;;;;;;27.57;74.04;98157.44;5053219;28;20212;-80
2023/08/17 11:03:27;;;;;;;8.40;7.60;;;;;;;27.62;76.33;98167.66;5053538;28;20208;-80
2023/08/17 11:05:56;;;;;;;8.38;7.57;;;;;;;27.70;76.33;98167.47;5052475;28;20491;-81
2023/08/17 11:08:24;;;;;;;9.80;8.77;;;;;;;27.74;77.12;98163.25;5053301;28;20572;-81
2023/08/17 11:10:59;;;;;;;10.40;9.15;;;;;;;27.74;77.71;98166.81;5053142;28;20208;-81
2023/08/17 11:13:28;;;;;;;8.67;7.77;;;;;;;27.76;79.64;98172.84;5053293;28;20204;-81
2023/08/17 11:15:54;;;;;;;8.80;7.90;;;;;;;27.73;78.22;98161.59;5050936;28;20239;-80
2023/08/17 11:18:23;;;;;;;8.03;7.03;;;;;;;27.68;79.99;98164.09;5052333;28;20220;-80
2023/08/17 11:20:51;;;;;;;9.70;8.13;;;;;;;27.70;79.45;98162.03;5052036;28;20219;-86
2023/08/17 11:23:18;;;;;;;10.10;9.00;;;;;;;27.69;74.89;98138.63;5052164;28;20697;-85